Time;durP1;ratioP1;P1;durP2;ratioP2;P2;SDS_P1;SDS_P2;PMS_P1;PMS_P2;Temp;Humidity;BMP_temperature;BMP_pressure;BME280_temperature;BME280_humidity;BME280_pressure;Samples;Min_cycle;Max_cycle;Signal;HPM_P1;HPM_P2
2023/07/16 00:00:40;;;;;;;12.77;7.53;;;26.80;90.40;;;;;;5042603;28;20208;-62
2023/07/16 00:03:07;;;;;;;10.83;8.37;;;26.80;90.50;;;;;;5041412;28;20627;-61
2023/07/16 00:05:36;;;;;;;14.23;9.07;;;26.80;90.60;;;;;;5044205;28;20211;-62
2023/07/16 00:08:03;;;;;;;10.60;8.60;;;26.80;90.80;;;;;;5040678;28;20630;-62
2023/07/16 00:10:32;;;;;;;16.07;9.93;;;26.80;90.80;;;;;;5046110;28;20197;-61
2023/07/16 00:12:59;;;;;;;15.20;9.67;;;26.70;90.90;;;;;;5041646;28;20246;-61
2023/07/16 00:15:26;;;;;;;14.07;9.63;;;26.70;90.90;;;;;;5040861;28;20201;-61
2023/07/16 00:17:54;;;;;;;20.07;10.67;;;26.70;91.00;;;;;;5038108;28;20241;-61
2023/07/16 00:20:23;;;;;;;13.80;10.47;;;26.60;91.10;;;;;;5037059;28;20279;-61
2023/07/16 00:22:51;;;;;;;15.80;9.53;;;26.70;91.30;;;;;;5038127;28;20214;-61
2023/07/16 00:25:18;;;;;;;14.90;9.07;;;26.60;91.20;;;;;;5040310;28;20345;-61
2023/07/16 00:27:46;;;;;;;20.57;9.97;;;26.60;91.30;;;;;;5047126;28;20635;-61
2023/07/16 00:30:14;;;;;;;13.67;9.63;;;26.60;91.20;;;;;;5040841;28;20199;-61
2023/07/16 00:32:41;;;;;;;14.47;9.80;;;26.60;91.30;;;;;;5042680;28;20226;-62
2023/07/16 00:35:09;;;;;;;13.47;10.23;;;26.60;91.30;;;;;;5039559;28;20595;-61
2023/07/16 00:37:36;;;;;;;12.27;8.40;;;26.50;91.30;;;;;;5041301;28;20542;-61
2023/07/16 00:40:04;;;;;;;13.63;9.37;;;26.50;91.40;;;;;;5043269;28;20260;-61
2023/07/16 00:42:31;;;;;;;16.53;8.63;;;26.40;91.50;;;;;;5044493;28;20707;-61
2023/07/16 00:44:58;;;;;;;12.20;8.80;;;26.40;91.50;;;;;;5037833;28;20199;-62
2023/07/16 00:47:25;;;;;;;12.77;9.90;;;26.40;91.70;;;;;;5039834;28;20651;-61
2023/07/16 00:49:53;;;;;;;12.50;9.17;;;26.40;91.80;;;;;;5050853;28;20210;-61
2023/07/16 00:52:22;;;;;;;17.07;8.93;;;26.30;91.80;;;;;;5038705;28;20211;-61
2023/07/16 00:54:50;;;;;;;14.00;8.80;;;26.30;91.80;;;;;;5037730;28;20211;-62
2023/07/16 00:57:17;;;;;;;13.30;9.23;;;26.30;91.80;;;;;;5038630;28;20321;-62
2023/07/16 00:59:44;;;;;;;16.93;8.47;;;26.30;91.80;;;;;;5037937;28;20279;-61
2023/07/16 01:02:11;;;;;;;14.17;7.97;;;26.30;91.70;;;;;;5042543;28;20225;-61
2023/07/16 01:04:38;;;;;;;12.27;8.47;;;26.20;91.60;;;;;;5043236;28;20207;-61
2023/07/16 01:07:10;;;;;;;14.93;8.57;;;26.20;91.50;;;;;;5041753;28;20211;-62
2023/07/16 01:09:42;;;;;;;9.40;8.03;;;26.10;91.20;;;;;;5038104;28;20208;-61
2023/07/16 01:12:10;;;;;;;12.77;8.50;;;26.10;91.20;;;;;;5039718;28;20243;-61
2023/07/16 01:14:39;;;;;;;11.47;7.83;;;26.10;91.20;;;;;;5044375;28;20249;-61
2023/07/16 01:17:06;;;;;;;16.73;8.00;;;26.10;91.20;;;;;;5040086;28;20261;-61
2023/07/16 01:19:34;;;;;;;11.20;8.57;;;26.00;91.20;;;;;;5043695;28;20565;-61
2023/07/16 01:22:23;;;;;;;15.67;8.97;;;26.00;91.40;;;;;;5041942;28;20698;-61
2023/07/16 01:25:00;;;;;;;11.77;8.87;;;26.00;91.50;;;;;;5042707;28;20267;-61
2023/07/16 01:28:04;;;;;;;10.77;8.70;;;26.00;91.70;;;;;;5043244;28;20261;-61
2023/07/16 01:30:32;;;;;;;15.40;9.33;;;25.90;91.70;;;;;;5039254;28;20220;-62
2023/07/16 01:33:01;;;;;;;14.83;11.20;;;25.90;91.60;;;;;;5036485;28;20253;-61
2023/07/16 01:35:30;;;;;;;12.97;9.63;;;25.90;91.60;;;;;;5039497;28;20248;-61
2023/07/16 01:37:57;;;;;;;14.30;8.93;;;25.80;91.70;;;;;;5044108;28;20235;-61
2023/07/16 01:40:27;;;;;;;14.00;11.00;;;25.80;91.80;;;;;;5045144;28;20689;-63
2023/07/16 01:42:54;;;;;;;12.70;10.20;;;25.80;91.90;;;;;;5044018;28;20266;-61
2023/07/16 01:45:21;;;;;;;12.97;9.57;;;25.80;92.30;;;;;;5036426;28;20297;-62
2023/07/16 01:48:11;;;;;;;16.93;9.90;;;25.70;92.10;;;;;;5044308;28;20197;-61
2023/07/16 01:50:38;;;;;;;14.50;11.03;;;25.70;92.20;;;;;;5044988;28;20206;-61
2023/07/16 01:53:05;;;;;;;13.40;10.50;;;25.70;92.20;;;;;;5040258;28;20228;-61
2023/07/16 01:55:34;;;;;;;17.53;11.90;;;25.60;92.60;;;;;;5035857;28;20203;-62
2023/07/16 01:58:03;;;;;;;14.77;10.87;;;25.60;92.40;;;;;;5039058;28;20230;-61
2023/07/16 02:00:30;;;;;;;11.60;9.90;;;25.60;92.40;;;;;;5039126;28;20596;-62
2023/07/16 02:02:57;;;;;;;14.77;9.83;;;25.60;92.50;;;;;;5045251;28;20201;-62
2023/07/16 02:05:26;;;;;;;12.70;10.03;;;25.60;92.50;;;;;;5051917;28;20223;-61
2023/07/16 02:07:53;;;;;;;15.73;10.10;;;25.60;92.50;;;;;;5044905;28;20210;-61
2023/07/16 02:10:20;;;;;;;16.13;10.90;;;25.60;92.40;;;;;;5044848;28;20206;-61
2023/07/16 02:12:47;;;;;;;11.90;9.47;;;25.60;92.40;;;;;;5047319;28;20233;-61
2023/07/16 02:15:15;;;;;;;14.40;9.87;;;25.60;92.40;;;;;;5046694;28;20226;-62
2023/07/16 02:17:42;;;;;;;16.20;9.17;;;25.60;92.30;;;;;;5051991;28;20284;-61
2023/07/16 02:20:13;;;;;;;11.87;9.33;;;25.60;92.20;;;;;;5046042;28;20187;-61
2023/07/16 02:22:40;;;;;;;16.50;10.23;;;25.60;92.00;;;;;;5051407;28;20237;-61
2023/07/16 02:25:07;;;;;;;16.47;11.83;;;25.50;91.90;;;;;;5044548;28;20327;-61
2023/07/16 02:27:34;;;;;;;16.07;10.63;;;25.50;91.90;;;;;;5048527;28;20221;-61
2023/07/16 02:30:03;;;;;;;14.57;10.93;;;25.50;92.00;;;;;;5041933;28;20223;-62
2023/07/16 02:32:30;;;;;;;17.87;10.47;;;25.50;92.00;;;;;;5044372;28;20228;-61
2023/07/16 02:35:01;;;;;;;13.27;10.70;;;25.40;92.00;;;;;;5041379;28;20206;-61
2023/07/16 02:37:28;;;;;;;12.83;9.77;;;25.40;92.10;;;;;;5044049;28;20229;-61
2023/07/16 02:39:56;;;;;;;14.17;9.93;;;25.40;91.90;;;;;;5051217;28;20658;-61
2023/07/16 02:42:24;;;;;;;13.07;11.30;;;25.40;91.50;;;;;;5041025;28;20207;-61
2023/07/16 02:44:51;;;;;;;14.03;11.63;;;25.40;91.50;;;;;;5045321;28;20206;-61
2023/07/16 02:47:18;;;;;;;17.33;11.40;;;25.30;91.70;;;;;;5045765;28;20195;-61
2023/07/16 02:49:45;;;;;;;13.50;11.53;;;25.30;91.90;;;;;;5049201;28;20230;-61
2023/07/16 02:52:13;;;;;;;14.53;10.97;;;25.20;92.30;;;;;;5050227;28;20195;-61
2023/07/16 02:54:40;;;;;;;17.43;10.83;;;25.20;92.10;;;;;;5041488;28;20196;-61
2023/07/16 02:57:07;;;;;;;20.27;11.97;;;25.20;92.20;;;;;;5037748;28;20207;-61
2023/07/16 02:59:34;;;;;;;15.77;12.40;;;25.20;92.30;;;;;;5044763;28;20634;-61
2023/07/16 03:02:01;;;;;;;13.70;12.33;;;25.20;92.40;;;;;;5045452;28;20719;-61
2023/07/16 03:04:28;;;;;;;12.80;11.50;;;25.20;92.50;;;;;;5043652;28;20214;-61
2023/07/16 03:06:55;;;;;;;15.60;11.33;;;25.20;92.60;;;;;;5042988;28;20228;-61
2023/07/16 03:09:22;;;;;;;15.47;12.30;;;25.20;92.60;;;;;;5041599;28;20198;-63
2023/07/16 03:11:49;;;;;;;13.17;10.73;;;25.20;92.70;;;;;;5042150;28;20214;-61
2023/07/16 03:14:18;;;;;;;20.10;11.63;;;25.20;92.70;;;;;;5049735;28;20233;-61
2023/07/16 03:16:45;;;;;;;15.33;12.07;;;25.20;92.70;;;;;;5044618;28;20297;-61
2023/07/16 03:19:12;;;;;;;16.17;11.80;;;25.20;92.80;;;;;;5037377;28;20239;-63
2023/07/16 03:21:41;;;;;;;22.17;13.43;;;25.20;92.80;;;;;;5057552;28;20213;-61
2023/07/16 03:24:09;;;;;;;15.37;11.10;;;25.20;92.80;;;;;;5043418;28;20240;-61
2023/07/16 03:26:36;;;;;;;15.00;12.83;;;25.20;92.80;;;;;;5042189;28;20234;-62
2023/07/16 03:29:03;;;;;;;17.93;12.97;;;25.30;92.80;;;;;;5050424;28;20206;-61
2023/07/16 03:31:31;;;;;;;14.23;12.20;;;25.20;92.70;;;;;;5042110;28;20566;-61
2023/07/16 03:33:58;;;;;;;14.00;12.50;;;25.20;92.70;;;;;;5042737;28;20222;-61
2023/07/16 03:36:28;;;;;;;17.70;14.23;;;25.20;92.70;;;;;;5044258;28;20202;-61
2023/07/16 03:38:56;;;;;;;17.43;14.13;;;25.20;92.70;;;;;;5045315;28;20226;-68
2023/07/16 03:41:25;;;;;;;23.87;14.13;;;25.20;92.80;;;;;;5049170;28;20657;-61
2023/07/16 03:43:52;;;;;;;18.77;13.90;;;25.10;92.80;;;;;;5038097;28;20220;-61
2023/07/16 03:46:20;;;;;;;17.77;13.43;;;25.10;92.90;;;;;;5049629;28;20263;-61
2023/07/16 03:48:47;;;;;;;17.13;14.80;;;25.10;92.90;;;;;;5042838;28;20243;-63
2023/07/16 03:51:15;;;;;;;16.67;13.90;;;25.00;92.90;;;;;;5041266;28;20301;-61
2023/07/16 03:53:42;;;;;;;18.83;14.37;;;25.00;93.00;;;;;;5042002;28;20213;-62
2023/07/16 03:56:09;;;;;;;17.90;13.57;;;25.00;93.00;;;;;;5045074;28;20514;-61
2023/07/16 03:58:36;;;;;;;18.30;14.47;;;25.00;93.00;;;;;;5039601;28;20195;-64
2023/07/16 04:01:05;;;;;;;16.53;14.20;;;25.00;92.90;;;;;;5047448;28;20212;-61
2023/07/16 04:03:32;;;;;;;19.33;14.10;;;25.00;92.90;;;;;;5043204;28;20688;-61
2023/07/16 04:06:04;;;;;;;16.90;15.10;;;25.00;92.90;;;;;;5040216;28;20660;-62
2023/07/16 04:08:31;;;;;;;18.87;14.13;;;25.00;92.90;;;;;;5037361;28;20217;-61
2023/07/16 04:10:59;;;;;;;16.67;14.27;;;25.00;92.90;;;;;;5040541;28;20211;-61
2023/07/16 04:13:26;;;;;;;18.77;14.60;;;25.00;92.90;;;;;;5044051;28;20233;-62
2023/07/16 04:15:54;;;;;;;17.40;15.43;;;25.00;92.90;;;;;;5042028;28;20212;-61
2023/07/16 04:18:27;;;;;;;22.13;15.07;;;25.00;92.90;;;;;;5040935;28;20324;-62
2023/07/16 04:20:54;;;;;;;17.70;15.70;;;25.00;93.00;;;;;;5042883;28;20194;-61
2023/07/16 04:23:22;;;;;;;17.67;15.67;;;25.00;93.10;;;;;;5038468;28;20228;-62
2023/07/16 04:25:54;;;;;;;16.90;14.23;;;25.10;93.10;;;;;;5042176;28;20226;-61
2023/07/16 04:28:22;;;;;;;17.77;14.07;;;25.10;93.20;;;;;;5045479;28;20196;-61
2023/07/16 04:30:49;;;;;;;17.73;14.53;;;25.10;93.10;;;;;;5040350;28;20203;-61
2023/07/16 04:33:16;;;;;;;21.03;15.70;;;25.20;93.10;;;;;;5042525;28;20223;-61
2023/07/16 04:35:43;;;;;;;19.23;15.23;;;25.20;93.20;;;;;;5044188;28;20203;-61
2023/07/16 04:38:10;;;;;;;21.37;15.60;;;25.20;93.20;;;;;;5043359;28;20273;-61
2023/07/16 04:40:37;;;;;;;22.07;16.07;;;25.30;93.60;;;;;;5038417;28;20214;-61
2023/07/16 04:43:04;;;;;;;20.77;16.03;;;25.40;93.40;;;;;;5040895;28;20211;-61
2023/07/16 04:45:31;;;;;;;20.03;16.00;;;25.40;93.40;;;;;;5039306;28;20214;-61
2023/07/16 04:47:59;;;;;;;19.33;16.13;;;25.50;93.50;;;;;;5041947;28;20715;-61
2023/07/16 04:50:26;;;;;;;18.23;16.40;;;25.60;93.90;;;;;;5040030;28;20298;-62
2023/07/16 04:52:53;;;;;;;20.53;15.27;;;25.60;93.60;;;;;;5040798;28;20226;-62
2023/07/16 04:55:20;;;;;;;19.20;16.67;;;25.70;93.60;;;;;;5041874;28;20666;-61
2023/07/16 04:57:47;;;;;;;34.50;19.83;;;25.70;93.60;;;;;;5039565;28;20211;-63
2023/07/16 05:00:14;;;;;;;21.10;18.30;;;25.80;93.60;;;;;;5042414;28;20225;-61
2023/07/16 05:02:41;;;;;;;22.37;18.17;;;25.90;93.60;;;;;;5044709;28;20190;-64
2023/07/16 05:05:08;;;;;;;23.60;16.80;;;25.90;93.60;;;;;;5050771;28;20215;-61
2023/07/16 05:07:38;;;;;;;22.87;17.07;;;26.00;93.60;;;;;;5049103;28;20291;-61
2023/07/16 05:10:05;;;;;;;19.73;17.63;;;26.10;93.60;;;;;;5045065;28;20205;-61
2023/07/16 05:12:32;;;;;;;21.20;16.33;;;26.20;93.70;;;;;;5045377;28;20203;-61
2023/07/16 05:14:59;;;;;;;21.83;17.73;;;26.30;93.70;;;;;;5040517;28;20221;-61
2023/07/16 05:17:26;;;;;;;19.60;17.50;;;26.40;93.70;;;;;;5041742;28;20210;-62
2023/07/16 05:19:54;;;;;;;18.57;16.67;;;26.50;93.80;;;;;;5037450;28;20199;-64
2023/07/16 05:22:21;;;;;;;25.27;18.83;;;26.60;93.80;;;;;;5038308;28;20641;-61
2023/07/16 05:24:48;;;;;;;20.27;18.00;;;26.70;93.80;;;;;;5041727;28;20569;-62
2023/07/16 05:27:17;;;;;;;26.77;19.60;;;26.80;93.70;;;;;;5040994;28;20225;-61
2023/07/16 05:29:44;;;;;;;25.77;21.67;;;26.90;93.80;;;;;;5038599;28;20288;-62
2023/07/16 05:32:11;;;;;;;38.43;26.47;;;27.00;93.80;;;;;;5041064;28;20256;-61
2023/07/16 05:34:40;;;;;;;48.60;30.23;;;27.10;93.80;;;;;;5038765;28;20225;-61
2023/07/16 05:37:07;;;;;;;46.20;28.40;;;27.20;93.90;;;;;;5044760;28;20203;-61
2023/07/16 05:39:34;;;;;;;43.07;26.60;;;27.30;93.90;;;;;;5040294;28;20207;-61
2023/07/16 05:42:02;;;;;;;43.40;26.27;;;27.50;93.90;;;;;;5041857;28;20268;-63
2023/07/16 05:44:29;;;;;;;40.73;27.07;;;27.60;93.80;;;;;;5039301;28;20326;-61
2023/07/16 05:46:56;;;;;;;49.60;30.43;;;27.70;93.70;;;;;;5046418;28;20209;-61
2023/07/16 05:49:26;;;;;;;47.60;29.37;;;27.80;93.60;;;;;;5041927;28;20230;-61
2023/07/16 05:51:55;;;;;;;43.27;29.03;;;28.00;93.60;;;;;;5039089;28;20209;-61
2023/07/16 05:54:23;;;;;;;39.33;27.30;;;28.10;93.40;;;;;;5041206;28;20207;-61
2023/07/16 05:56:53;;;;;;;37.10;25.93;;;28.20;93.20;;;;;;5036867;28;20223;-61
2023/07/16 05:59:20;;;;;;;41.43;26.00;;;28.30;93.10;;;;;;5040227;28;20192;-61
2023/07/16 06:01:47;;;;;;;33.90;26.37;;;28.40;93.00;;;;;;5040758;28;20238;-62
2023/07/16 06:04:14;;;;;;;37.80;25.60;;;28.50;92.90;;;;;;5041146;28;20198;-61
2023/07/16 06:06:41;;;;;;;40.60;25.47;;;28.60;92.90;;;;;;5045074;28;20198;-61
2023/07/16 06:09:11;;;;;;;38.43;26.23;;;28.70;92.80;;;;;;5040896;28;20207;-61
2023/07/16 06:11:38;;;;;;;33.23;25.17;;;28.80;92.70;;;;;;5041218;28;20209;-61
2023/07/16 06:14:05;;;;;;;40.27;27.40;;;28.90;92.50;;;;;;5041591;28;20219;-61
2023/07/16 06:16:32;;;;;;;31.13;23.17;;;29.10;92.40;;;;;;5037209;28;20290;-62
2023/07/16 06:18:59;;;;;;;34.57;21.93;;;29.20;92.20;;;;;;5038414;28;20277;-61
2023/07/16 06:21:26;;;;;;;36.63;24.60;;;29.30;92.00;;;;;;5039066;28;20286;-61
2023/07/16 06:23:53;;;;;;;30.97;23.97;;;29.40;91.90;;;;;;5041615;28;20217;-61
2023/07/16 06:26:20;;;;;;;30.80;23.17;;;29.50;91.60;;;;;;5040515;28;20324;-61
2023/07/16 06:28:50;;;;;;;28.27;20.87;;;29.50;91.40;;;;;;5040122;28;20211;-63
2023/07/16 06:31:18;;;;;;;30.60;21.70;;;29.60;91.40;;;;;;5038716;28;20211;-61
2023/07/16 06:33:49;;;;;;;32.37;20.90;;;29.70;91.20;;;;;;5037802;28;20223;-62
2023/07/16 06:36:16;;;;;;;30.53;21.03;;;29.70;91.20;;;;;;5037580;28;20248;-61
2023/07/16 06:38:43;;;;;;;26.43;19.43;;;29.80;91.20;;;;;;5041901;28;20261;-63
2023/07/16 06:41:10;;;;;;;27.23;17.60;;;29.90;91.10;;;;;;5041362;28;20203;-62
2023/07/16 06:43:37;;;;;;;23.93;15.07;;;30.00;90.80;;;;;;5042615;28;20274;-61
2023/07/16 06:46:05;;;;;;;21.60;16.07;;;30.10;90.70;;;;;;5044280;28;20298;-61
2023/07/16 06:48:32;;;;;;;19.73;15.17;;;30.20;90.50;;;;;;5043011;28;20199;-61
2023/07/16 06:50:59;;;;;;;19.67;14.93;;;30.30;90.40;;;;;;5041605;28;20227;-61
2023/07/16 06:53:26;;;;;;;21.87;14.57;;;30.40;90.30;;;;;;5043159;28;20213;-61
2023/07/16 06:55:55;;;;;;;21.33;14.73;;;30.60;90.10;;;;;;5041951;28;20211;-62
2023/07/16 06:58:35;;;;;;;18.37;13.13;;;30.70;89.80;;;;;;5039640;28;20249;-61
2023/07/16 07:01:02;;;;;;;27.17;13.40;;;30.90;89.30;;;;;;5037424;28;20226;-60
2023/07/16 07:03:29;;;;;;;19.57;12.93;;;31.10;88.90;;;;;;5045314;28;20573;-61
2023/07/16 07:05:57;;;;;;;17.07;11.93;;;31.20;88.70;;;;;;5040252;28;20547;-63
2023/07/16 07:08:24;;;;;;;16.10;12.43;;;31.40;88.70;;;;;;5044156;28;20269;-63
2023/07/16 07:10:51;;;;;;;19.93;12.37;;;31.50;87.20;;;;;;5042566;28;20227;-61
2023/07/16 07:13:20;;;;;;;16.93;11.73;;;31.60;86.40;;;;;;5041261;28;20289;-61
2023/07/16 07:15:47;;;;;;;17.87;10.17;;;31.70;85.10;;;;;;5044668;28;20591;-62
2023/07/16 07:18:14;;;;;;;14.60;11.03;;;31.70;85.40;;;;;;5048770;28;20207;-61
2023/07/16 07:20:41;;;;;;;21.13;12.23;;;31.80;85.10;;;;;;5043927;28;20229;-62
2023/07/16 07:23:08;;;;;;;17.60;11.27;;;31.90;84.50;;;;;;5039043;28;20203;-61
2023/07/16 07:25:39;;;;;;;15.40;10.53;;;32.00;84.10;;;;;;5044880;28;20314;-62
2023/07/16 07:28:06;;;;;;;17.87;11.53;;;32.20;83.70;;;;;;5042453;28;20248;-64
2023/07/16 07:30:33;;;;;;;17.57;12.10;;;32.40;82.90;;;;;;5038617;28;20222;-61
2023/07/16 07:33:00;;;;;;;14.07;9.30;;;32.50;81.90;;;;;;5038113;28;20289;-61
2023/07/16 07:35:27;;;;;;;16.57;10.40;;;32.60;81.50;;;;;;5041283;28;20366;-61
2023/07/16 07:37:55;;;;;;;16.37;12.77;;;32.70;80.80;;;;;;5042436;28;20202;-63
2023/07/16 07:40:22;;;;;;;18.07;11.20;;;32.80;80.40;;;;;;5041658;28;20209;-61
2023/07/16 07:42:48;;;;;;;13.67;11.23;;;32.80;79.90;;;;;;5040561;28;20253;-63
2023/07/16 07:45:16;;;;;;;13.90;11.13;;;32.80;79.10;;;;;;5039418;28;20544;-62
2023/07/16 07:47:43;;;;;;;18.20;11.27;;;32.80;78.30;;;;;;5041662;28;20221;-62
2023/07/16 07:50:10;;;;;;;16.03;10.27;;;32.80;79.10;;;;;;5043431;28;20290;-63
2023/07/16 07:52:37;;;;;;;15.63;9.27;;;32.80;78.60;;;;;;5046143;28;20222;-62
2023/07/16 07:55:04;;;;;;;16.00;10.80;;;32.90;77.90;;;;;;5047426;28;20231;-62
2023/07/16 07:57:32;;;;;;;12.57;8.57;;;32.90;77.60;;;;;;5045441;28;20290;-62
2023/07/16 07:59:59;;;;;;;11.87;10.63;;;33.00;77.80;;;;;;5047308;28;20202;-62
2023/07/16 08:02:26;;;;;;;13.23;10.10;;;33.20;77.60;;;;;;5041521;28;20210;-62
2023/07/16 08:04:55;;;;;;;21.60;9.77;;;33.20;77.60;;;;;;5039733;28;20506;-62
2023/07/16 08:07:23;;;;;;;13.87;9.43;;;33.20;77.30;;;;;;5040051;28;20272;-62
2023/07/16 08:09:50;;;;;;;12.10;9.33;;;33.20;77.10;;;;;;5037959;28;20588;-63
2023/07/16 08:12:17;;;;;;;13.87;8.83;;;33.20;77.00;;;;;;5040564;28;20237;-62
2023/07/16 08:14:44;;;;;;;11.10;8.63;;;33.30;77.30;;;;;;5037922;28;20222;-62
2023/07/16 08:17:11;;;;;;;15.50;7.47;;;33.30;75.80;;;;;;5042999;28;20223;-62
2023/07/16 08:19:39;;;;;;;16.50;10.20;;;33.40;76.40;;;;;;5039268;28;20217;-62
2023/07/16 08:22:06;;;;;;;15.00;9.20;;;33.50;76.20;;;;;;5041714;28;20198;-62
2023/07/16 08:24:35;;;;;;;11.93;9.83;;;33.60;76.20;;;;;;5041152;28;20234;-62
2023/07/16 08:27:02;;;;;;;21.37;8.93;;;33.70;76.40;;;;;;5042648;28;20529;-62
2023/07/16 08:29:29;;;;;;;15.80;8.63;;;33.80;76.10;;;;;;5037696;28;20199;-64
2023/07/16 08:31:59;;;;;;;14.07;8.77;;;33.90;76.50;;;;;;5041659;28;20206;-62
2023/07/16 08:34:26;;;;;;;9.93;8.63;;;34.00;74.60;;;;;;5043361;28;20214;-62
2023/07/16 08:36:53;;;;;;;13.17;8.03;;;34.00;74.00;;;;;;5042779;28;20194;-62
2023/07/16 08:39:20;;;;;;;15.23;9.30;;;34.10;74.10;;;;;;5041805;28;20634;-63
2023/07/16 08:41:50;;;;;;;10.80;8.90;;;34.10;74.20;;;;;;5039489;28;20651;-62
2023/07/16 08:44:17;;;;;;;14.80;9.30;;;34.20;72.90;;;;;;5039289;28;20648;-62
2023/07/16 08:46:45;;;;;;;11.23;8.43;;;34.30;73.00;;;;;;5042782;28;20544;-62
2023/07/16 08:49:13;;;;;;;9.60;7.57;;;34.30;72.20;;;;;;5039852;28;20191;-62
2023/07/16 08:51:40;;;;;;;14.43;8.63;;;34.40;72.50;;;;;;5042786;28;20207;-63
2023/07/16 08:54:08;;;;;;;12.73;8.17;;;34.50;72.00;;;;;;5046591;28;20230;-61
2023/07/16 08:56:35;;;;;;;11.20;7.90;;;34.70;71.20;;;;;;5042009;28;20234;-62
2023/07/16 08:59:02;;;;;;;13.40;7.93;;;34.80;71.30;;;;;;5040062;28;20230;-62
2023/07/16 09:01:29;;;;;;;15.40;8.03;;;35.00;70.10;;;;;;5040261;28;20191;-64
2023/07/16 09:03:57;;;;;;;10.52;7.10;;;35.10;69.10;;;;;;5038527;28;20188;-63
2023/07/16 09:06:24;;;;;;;13.23;8.05;;;35.30;68.80;;;;;;5034634;28;20233;-62
2023/07/16 09:08:51;;;;;;;12.55;7.85;;;35.40;68.20;;;;;;5035552;28;20202;-64
2023/07/16 09:11:21;;;;;;;8.07;6.63;;;35.50;67.10;;;;;;5043961;28;20667;-62
2023/07/16 09:13:50;;;;;;;11.70;7.90;;;35.70;67.00;;;;;;5038786;28;20545;-63
2023/07/16 09:16:21;;;;;;;11.93;6.97;;;35.70;67.50;;;;;;5040525;28;20309;-62
2023/07/16 09:18:48;;;;;;;10.05;6.35;;;36.00;67.30;;;;;;5037559;28;20203;-62
2023/07/16 09:21:15;;;;;;;12.13;6.70;;;36.10;65.00;;;;;;5036392;28;20203;-62
2023/07/16 09:23:44;;;;;;;12.38;6.32;;;36.20;63.70;;;;;;5041982;28;20222;-63
2023/07/16 09:26:11;;;;;;;8.23;6.70;;;36.20;62.20;;;;;;5041418;28;20278;-62
2023/07/16 09:28:39;;;;;;;11.75;6.72;;;36.30;62.70;;;;;;5049086;28;20198;-63
2023/07/16 09:31:07;;;;;;;14.25;7.00;;;36.30;63.10;;;;;;5035366;28;20208;-63
2023/07/16 09:33:35;;;;;;;12.02;6.22;;;36.40;63.30;;;;;;5040264;28;20194;-62
2023/07/16 09:36:03;;;;;;;8.55;6.43;;;36.50;62.10;;;;;;5041889;28;20253;-62
2023/07/16 09:38:32;;;;;;;8.65;6.55;;;36.60;61.80;;;;;;5036881;28;20651;-62
2023/07/16 09:41:02;;;;;;;7.95;6.28;;;36.70;62.40;;;;;;5040409;28;20214;-63
2023/07/16 09:43:29;;;;;;;8.50;6.20;;;36.80;60.60;;;;;;5035072;28;20228;-62
2023/07/16 09:45:57;;;;;;;9.82;5.90;;;36.80;58.80;;;;;;5042451;28;20238;-62
2023/07/16 09:48:24;;;;;;;9.13;5.80;;;36.80;58.00;;;;;;5040605;28;20678;-62
2023/07/16 09:50:53;;;;;;;8.55;6.20;;;36.90;58.10;;;;;;5044814;28;20667;-62
2023/07/16 09:53:21;;;;;;;14.10;6.93;;;36.90;59.30;;;;;;5038426;28;20203;-63
2023/07/16 09:55:52;;;;;;;8.55;5.93;;;37.00;59.50;;;;;;5039698;28;20220;-62
2023/07/16 09:58:22;;;;;;;10.02;6.07;;;37.10;58.70;;;;;;5040101;28;20529;-62
2023/07/16 10:00:51;;;;;;;7.97;5.55;;;37.20;58.70;;;;;;5039716;28;20245;-63
2023/07/16 10:03:18;;;;;;;12.73;5.80;;;37.20;56.40;;;;;;5044976;28;20202;-63
2023/07/16 10:05:45;;;;;;;8.38;5.18;;;37.30;57.20;;;;;;5046485;28;20207;-63
2023/07/16 10:08:17;;;;;;;10.65;4.57;;;37.30;57.00;;;;;;5038314;28;20337;-62
2023/07/16 10:10:54;;;;;;;5.65;4.47;;;37.40;55.10;;;;;;5045073;28;20282;-63
2023/07/16 10:13:23;;;;;;;8.02;4.30;;;37.50;55.00;;;;;;5039635;28;20225;-63
2023/07/16 10:15:54;;;;;;;6.97;3.88;;;37.60;54.00;;;;;;5041818;28;20292;-63
2023/07/16 10:18:33;;;;;;;6.47;4.22;;;37.70;52.20;;;;;;5038523;28;20246;-63
2023/07/16 10:21:03;;;;;;;5.78;4.25;;;37.80;51.80;;;;;;5035786;28;20256;-63
2023/07/16 10:23:39;;;;;;;8.18;3.97;;;38.00;52.00;;;;;;5038195;28;20588;-62
2023/07/16 10:26:07;;;;;;;8.75;4.07;;;38.10;51.00;;;;;;5043642;28;20235;-62
2023/07/16 10:28:35;;;;;;;5.75;4.38;;;38.20;50.80;;;;;;5042746;28;20191;-62
2023/07/16 10:31:03;;;;;;;11.82;4.47;;;38.20;49.80;;;;;;5040772;28;20235;-62
2023/07/16 10:33:30;;;;;;;5.00;3.28;;;38.30;48.50;;;;;;5038714;28;20195;-63
2023/07/16 10:35:59;;;;;;;9.07;4.20;;;38.30;48.20;;;;;;5043172;28;20229;-62
2023/07/16 10:38:26;;;;;;;6.72;3.83;;;38.30;48.10;;;;;;5047746;28;20207;-63
2023/07/16 10:40:55;;;;;;;3.95;3.30;;;38.40;48.00;;;;;;5044888;28;20290;-65
2023/07/16 10:43:24;;;;;;;4.85;3.80;;;38.50;47.80;;;;;;5045080;28;20195;-63
2023/07/16 10:45:54;;;;;;;5.07;3.88;;;38.60;48.10;;;;;;5048936;28;20278;-64
2023/07/16 10:48:26;;;;;;;7.55;4.03;;;38.70;48.10;;;;;;5045094;28;20294;-64
2023/07/16 10:50:57;;;;;;;6.95;4.13;;;38.80;48.40;;;;;;5047006;28;20206;-63
2023/07/16 10:53:27;;;;;;;5.18;3.97;;;38.90;47.90;;;;;;5044271;28;20238;-63
2023/07/16 10:55:54;;;;;;;9.30;4.00;;;39.00;47.40;;;;;;5039950;28;20219;-63
2023/07/16 10:58:21;;;;;;;6.75;3.58;;;39.10;46.20;;;;;;5041417;28;20221;-62
2023/07/16 11:00:48;;;;;;;7.80;4.00;;;39.10;46.20;;;;;;5043217;28;20257;-63
2023/07/16 11:03:18;;;;;;;7.03;4.13;;;39.20;46.10;;;;;;5044646;28;20268;-63
2023/07/16 11:05:46;;;;;;;7.50;4.05;;;39.20;46.10;;;;;;5040344;28;20200;-63
2023/07/16 11:08:22;;;;;;;8.55;4.25;;;39.20;46.30;;;;;;5040585;28;20204;-63
2023/07/16 11:10:57;;;;;;;5.85;3.53;;;39.20;46.20;;;;;;5040816;28;20293;-62
2023/07/16 11:13:31;;;;;;;6.35;3.47;;;39.30;46.20;;;;;;5044476;28;20631;-63
2023/07/16 11:16:15;;;;;;;6.68;3.60;;;39.30;45.40;;;;;;5051330;28;20675;-63
2023/07/16 11:18:44;;;;;;;8.32;4.18;;;39.30;46.10;;;;;;5037636;28;20286;-63
2023/07/16 11:21:11;;;;;;;7.20;3.70;;;39.40;46.00;;;;;;5041057;28;20277;-63
2023/07/16 11:23:39;;;;;;;5.47;3.95;;;39.40;44.70;;;;;;5043014;28;20203;-63
2023/07/16 11:26:06;;;;;;;8.85;4.15;;;39.40;44.90;;;;;;5040357;28;20245;-63
2023/07/16 11:28:40;;;;;;;4.68;3.58;;;39.50;44.70;;;;;;5043469;28;20218;-63
2023/07/16 11:31:12;;;;;;;7.65;4.07;;;39.40;44.30;;;;;;5040045;28;20603;-63
2023/07/16 11:33:43;;;;;;;5.07;3.75;;;39.40;44.80;;;;;;5041865;28;20202;-63
2023/07/16 11:36:11;;;;;;;6.20;3.60;;;39.50;44.40;;;;;;5038919;28;20547;-64
2023/07/16 11:38:39;;;;;;;10.77;4.07;;;39.50;44.20;;;;;;5042644;28;20213;-64
2023/07/16 11:41:06;;;;;;;8.32;4.00;;;39.50;44.50;;;;;;5042262;28;20261;-63
2023/07/16 11:43:35;;;;;;;6.80;4.32;;;39.60;44.60;;;;;;5039749;28;20555;-63
2023/07/16 11:46:05;;;;;;;6.40;4.05;;;39.70;45.10;;;;;;5037827;28;20422;-63
2023/07/16 11:48:32;;;;;;;5.28;4.03;;;39.70;45.00;;;;;;5040396;28;20207;-63
2023/07/16 11:50:59;;;;;;;6.95;3.67;;;39.80;44.10;;;;;;5044740;28;20209;-62
2023/07/16 11:53:26;;;;;;;6.63;3.65;;;39.80;44.30;;;;;;5042950;28;20208;-65
2023/07/16 11:55:53;;;;;;;5.25;3.20;;;39.80;44.60;;;;;;5039671;28;20222;-62
2023/07/16 11:58:20;;;;;;;5.55;3.40;;;39.80;44.10;;;;;;5042615;28;20199;-62
2023/07/16 12:00:47;;;;;;;7.22;3.40;;;39.80;43.80;;;;;;5042161;28;20211;-63
2023/07/16 12:03:15;;;;;;;5.80;3.63;;;39.80;45.00;;;;;;5038591;28;20214;-65
2023/07/16 12:05:43;;;;;;;7.93;3.70;;;39.90;44.70;;;;;;5039320;28;20647;-64
2023/07/16 12:08:19;;;;;;;6.40;3.47;;;39.90;44.90;;;;;;5041719;28;20203;-63
2023/07/16 12:10:46;;;;;;;4.55;3.72;;;39.90;44.50;;;;;;5039866;28;20225;-63
2023/07/16 12:13:13;;;;;;;4.50;3.53;;;39.90;43.30;;;;;;5042160;28;20234;-63
2023/07/16 12:15:42;;;;;;;5.32;3.33;;;39.80;43.60;;;;;;5048903;28;20230;-62
2023/07/16 12:18:09;;;;;;;5.15;3.97;;;39.70;43.30;;;;;;5042429;28;20306;-64
2023/07/16 12:20:37;;;;;;;3.90;3.20;;;39.70;43.50;;;;;;5041115;28;20222;-63
2023/07/16 12:23:05;;;;;;;9.13;4.38;;;39.70;43.60;;;;;;5040208;28;20219;-63
2023/07/16 12:25:32;;;;;;;8.93;3.85;;;39.70;43.70;;;;;;5043012;28;20278;-62
2023/07/16 12:28:01;;;;;;;12.30;3.70;;;39.70;44.00;;;;;;5040535;28;20211;-63
2023/07/16 12:30:29;;;;;;;7.53;3.63;;;39.70;43.50;;;;;;5041935;28;20202;-64
2023/07/16 12:32:56;;;;;;;7.60;3.42;;;39.80;43.50;;;;;;5040884;28;20280;-63
2023/07/16 12:35:23;;;;;;;9.48;3.53;;;39.80;43.40;;;;;;5042176;28;20272;-63
2023/07/16 12:37:50;;;;;;;7.15;3.65;;;39.80;42.80;;;;;;5041236;28;20694;-64